Time;durP1;ratioP1;P1;durP2;ratioP2;P2;SDS_P1;SDS_P2;PMS_P1;PMS_P2;Temp;Humidity;BMP_temperature;BMP_pressure;BME280_temperature;BME280_humidity;BME280_pressure;Samples;Min_cycle;Max_cycle;Signal;HPM_P1;HPM_P2
2023/10/23 00:02:24;;;;;;;6.40;2.42;;;;;;;16.70;60.71;101189.84;4921340;28;20142;-78
2023/10/23 00:04:51;;;;;;;6.03;2.10;;;;;;;16.44;60.82;101155.91;4940153;28;20167;-76
2023/10/23 00:07:18;;;;;;;4.38;2.35;;;;;;;16.70;61.39;101200.56;4948146;28;20492;-79
2023/10/23 00:09:45;;;;;;;6.43;2.28;;;;;;;16.60;61.17;101203.38;4941568;28;20043;-76
2023/10/23 00:12:12;;;;;;;7.35;2.38;;;;;;;16.73;61.31;101216.31;4934442;28;20062;-78
2023/10/23 00:14:39;;;;;;;5.25;2.28;;;;;;;16.66;61.12;101212.59;4946600;28;20377;-78
2023/10/23 00:17:06;;;;;;;9.85;2.25;;;;;;;16.58;61.79;101189.28;4936509;28;20050;-77
2023/10/23 00:19:33;;;;;;;5.82;1.75;;;;;;;16.67;61.18;101208.91;4922059;28;20894;-79
2023/10/23 00:22:04;;;;;;;8.80;2.10;;;;;;;16.75;61.63;101217.00;4933996;28;20513;-80
2023/10/23 00:24:31;;;;;;;9.75;1.85;;;;;;;16.77;62.02;101215.00;4938057;28;20078;-78
2023/10/23 00:26:58;;;;;;;4.85;1.65;;;;;;;16.88;61.67;101220.09;4943703;28;20379;-79
2023/10/23 00:29:25;;;;;;;5.97;2.25;;;;;;;16.80;61.43;101203.16;4941463;28;20504;-78
2023/10/23 00:31:51;;;;;;;4.53;2.17;;;;;;;17.08;61.57;101226.00;4944888;28;20097;-77
2023/10/23 00:34:18;;;;;;;7.47;2.70;;;;;;;17.08;60.43;101227.84;4940432;28;20156;-77
2023/10/23 00:36:45;;;;;;;3.72;1.48;;;;;;;17.03;61.24;101203.38;4936860;28;20047;-77
2023/10/23 00:39:12;;;;;;;6.05;1.95;;;;;;;17.13;60.68;101230.03;4937294;28;20130;-77
2023/10/23 00:41:39;;;;;;;6.22;1.95;;;;;;;17.23;60.69;101231.59;4927647;28;20073;-78
2023/10/23 00:44:06;;;;;;;3.60;1.90;;;;;;;17.33;63.80;101212.66;4941283;28;20293;-78
2023/10/23 00:46:33;;;;;;;8.73;1.65;;;;;;;17.26;60.70;101193.69;4930842;28;20088;-77
2023/10/23 00:49:01;;;;;;;2.22;1.20;;;;;;;17.42;60.14;101240.34;4931436;28;20083;-79
2023/10/23 00:51:28;;;;;;;3.92;1.50;;;;;;;17.32;59.71;101247.69;4934246;28;20921;-77
2023/10/23 00:53:56;;;;;;;4.65;1.52;;;;;;;17.13;60.01;101228.19;4930565;28;20051;-77
2023/10/23 00:56:23;;;;;;;3.38;1.00;;;;;;;17.02;60.49;101217.78;4927830;28;20146;-76
2023/10/23 00:58:50;;;;;;;5.75;1.73;;;;;;;17.07;60.42;101250.34;4923901;28;20129;-76
2023/10/23 01:01:17;;;;;;;11.57;1.85;;;;;;;16.97;60.68;101236.22;4932778;28;20421;-78
2023/10/23 01:03:44;;;;;;;5.60;1.55;;;;;;;16.99;60.85;101234.19;4938465;28;20047;-76
2023/10/23 01:06:16;;;;;;;3.83;1.60;;;;;;;17.18;61.43;101255.38;4938758;28;20098;-78
2023/10/23 01:08:47;;;;;;;4.78;1.55;;;;;;;17.15;60.40;101234.25;4937326;28;20137;-76
2023/10/23 01:11:15;;;;;;;3.25;1.30;;;;;;;17.14;60.43;101251.34;4931360;28;20098;-76
2023/10/23 01:13:42;;;;;;;8.50;1.73;;;;;;;17.07;60.66;101240.44;4939354;28;20302;-79
2023/10/23 01:16:09;;;;;;;4.97;1.60;;;;;;;16.90;60.98;101213.75;4934215;28;20417;-79
2023/10/23 01:18:39;;;;;;;7.50;1.80;;;;;;;16.99;60.17;101242.25;4942423;28;20523;-78
2023/10/23 01:21:08;;;;;;;6.25;1.40;;;;;;;16.93;60.54;101241.06;4943274;28;20066;-78
2023/10/23 01:23:41;;;;;;;4.93;1.70;;;;;;;16.89;61.40;101250.41;4935197;28;20057;-78
2023/10/23 01:26:13;;;;;;;5.65;1.80;;;;;;;16.87;60.84;101237.19;4938453;28;20485;-79
2023/10/23 01:28:40;;;;;;;2.92;1.42;;;;;;;16.79;62.02;101223.72;4935329;28;20461;-78
2023/10/23 01:31:08;;;;;;;5.05;1.73;;;;;;;17.03;61.66;101240.91;4932593;28;20385;-78
2023/10/23 01:33:39;;;;;;;4.90;1.98;;;;;;;17.04;60.86;101245.31;4932677;28;20091;-78
2023/10/23 01:36:07;;;;;;;4.10;1.75;;;;;;;16.94;60.69;101248.09;4949892;28;20444;-78
2023/10/23 01:38:34;;;;;;;2.22;1.27;;;;;;;16.72;60.89;101230.72;4927784;28;20532;-78
2023/10/23 01:41:08;;;;;;;4.53;1.88;;;;;;;16.80;61.30;101244.19;4929043;28;20125;-79
2023/10/23 01:43:36;;;;;;;4.03;1.70;;;;;;;16.71;61.63;101242.44;4940469;28;20098;-77
2023/10/23 01:46:03;;;;;;;4.88;1.58;;;;;;;16.67;61.77;101249.13;4931057;28;20098;-77
2023/10/23 01:48:30;;;;;;;4.63;1.85;;;;;;;16.52;61.71;101227.44;4942914;28;20580;-78
2023/10/23 01:51:01;;;;;;;8.50;1.95;;;;;;;16.51;61.83;101246.38;4939161;28;20081;-77
2023/10/23 01:53:28;;;;;;;5.57;2.00;;;;;;;16.42;62.12;101235.59;4935214;28;20137;-78
2023/10/23 01:55:55;;;;;;;9.88;1.75;;;;;;;16.22;63.80;101196.66;4940618;28;20047;-78
2023/10/23 01:58:22;;;;;;;3.38;1.65;;;;;;;16.77;64.66;101225.72;4931235;28;20046;-77
2023/10/23 02:00:57;;;;;;;6.43;2.13;;;;;;;16.78;62.48;101227.44;4942526;28;20043;-76
2023/10/23 02:03:24;;;;;;;11.15;4.40;;;;;;;16.54;62.13;101213.91;4943555;28;20066;-78
2023/10/23 02:05:51;;;;;;;4.18;1.83;;;;;;;16.48;61.96;101225.25;4947542;28;20386;-77
2023/10/23 02:08:23;;;;;;;5.75;1.77;;;;;;;16.39;62.59;101227.88;4938069;28;20054;-78
2023/10/23 02:10:52;;;;;;;4.85;1.85;;;;;;;16.35;62.98;101234.56;4932720;28;20050;-78
2023/10/23 02:13:20;;;;;;;4.10;1.42;;;;;;;16.29;62.71;101235.22;4939188;28;20376;-76
2023/10/23 02:15:47;;;;;;;4.10;1.90;;;;;;;16.18;62.99;101230.94;4929911;28;20055;-77
2023/10/23 02:18:15;;;;;;;3.92;1.30;;;;;;;16.20;63.17;101238.81;4936690;28;20053;-78
2023/10/23 02:20:41;;;;;;;6.07;1.70;;;;;;;15.69;63.24;101184.22;4933205;28;20141;-77
2023/10/23 02:23:13;;;;;;;4.78;2.15;;;;;;;15.81;63.25;101212.44;4936149;28;20050;-78
2023/10/23 02:25:42;;;;;;;5.75;1.88;;;;;;;15.91;64.20;101245.31;4941599;28;20515;-76
2023/10/23 02:28:13;;;;;;;4.03;1.75;;;;;;;15.79;64.21;101201.06;4925213;28;20138;-78
2023/10/23 02:30:40;;;;;;;5.38;2.00;;;;;;;15.98;64.10;101222.28;4932848;28;20220;-77
2023/10/23 02:33:07;;;;;;;5.15;1.80;;;;;;;16.02;63.59;101236.22;4928200;28;20051;-78
2023/10/23 02:35:34;;;;;;;5.93;1.73;;;;;;;15.96;64.36;101232.28;4930700;28;20058;-78
2023/10/23 02:38:02;;;;;;;4.20;1.88;;;;;;;15.72;64.62;101191.97;4913152;28;20091;-79
2023/10/23 02:40:36;;;;;;;4.38;1.98;;;;;;;15.97;64.38;101239.34;4904013;28;20368;-80
2023/10/23 02:43:18;;;;;;;3.72;2.03;;;;;;;15.91;64.55;101239.97;4896951;28;20206;-79
2023/10/23 02:45:45;;;;;;;4.40;2.20;;;;;;;15.64;65.00;101194.56;4930919;28;20050;-78
2023/10/23 02:48:13;;;;;;;3.53;2.08;;;;;;;15.82;64.95;101235.53;4935558;28;20501;-78
2023/10/23 02:50:43;;;;;;;7.28;2.00;;;;;;;15.85;64.27;101232.56;4912389;28;20489;-78
2023/10/23 02:53:14;;;;;;;2.65;1.70;;;;;;;15.59;64.11;101201.19;4927803;28;20047;-79
2023/10/23 02:55:41;;;;;;;2.45;1.77;;;;;;;15.69;64.60;101238.59;4927769;28;20481;-79
2023/10/23 02:58:10;;;;;;;4.57;2.00;;;;;;;15.54;65.24;101219.56;4939529;28;20057;-79
2023/10/23 03:00:42;;;;;;;3.08;1.58;;;;;;;15.51;65.34;101230.56;4932239;28;20141;-80
2023/10/23 03:03:12;;;;;;;3.45;1.85;;;;;;;15.34;65.54;101210.00;4933408;28;20488;-79
2023/10/23 03:05:43;;;;;;;7.75;1.85;;;;;;;15.59;65.60;101257.41;4937286;28;20066;-77
2023/10/23 03:08:10;;;;;;;3.88;1.73;;;;;;;15.52;65.69;101240.28;4913308;28;20342;-78
2023/10/23 03:10:37;;;;;;;5.25;1.90;;;;;;;15.66;66.13;101264.84;4928223;28;20386;-79
2023/10/23 03:13:11;;;;;;;10.48;2.03;;;;;;;15.67;65.62;101275.38;4914100;28;20086;-80
2023/10/23 03:15:40;;;;;;;3.90;1.73;;;;;;;15.63;65.71;101268.63;4928898;28;20074;-79
2023/10/23 03:18:08;;;;;;;6.63;2.00;;;;;;;15.62;65.67;101282.19;4932288;28;20421;-79
2023/10/23 03:20:36;;;;;;;6.88;1.90;;;;;;;15.58;65.93;101277.13;4934148;28;20051;-78
2023/10/23 03:23:05;;;;;;;6.05;1.70;;;;;;;15.79;67.40;101284.03;4918180;28;20555;-77
2023/10/23 03:25:32;;;;;;;6.47;1.80;;;;;;;15.74;66.62;101235.47;4930459;28;20086;-79
2023/10/23 03:27:59;;;;;;;8.77;2.30;;;;;;;15.80;65.55;101237.53;4921513;28;20101;-78
2023/10/23 03:30:26;;;;;;;6.38;2.20;;;;;;;16.05;64.78;101267.19;4934910;28;20065;-79
2023/10/23 03:32:59;;;;;;;3.97;1.85;;;;;;;15.98;64.91;101278.50;4905958;28;20259;-78
2023/10/23 03:35:26;;;;;;;3.45;2.17;;;;;;;15.69;65.33;101256.47;4891884;28;20141;-79
2023/10/23 03:37:59;;;;;;;5.05;1.73;;;;;;;15.81;66.08;101268.66;4879833;28;20145;-79
2023/10/23 03:40:28;;;;;;;5.75;2.15;;;;;;;15.86;65.27;101274.41;4907322;28;20106;-76
2023/10/23 03:42:55;;;;;;;6.45;2.20;;;;;;;15.73;64.98;101255.22;4899591;28;20047;-78
2023/10/23 03:45:22;;;;;;;7.28;2.65;;;;;;;15.70;65.22;101258.19;4911921;28;20149;-79
2023/10/23 03:47:49;;;;;;;6.05;2.63;;;;;;;15.72;65.18;101273.09;4921680;28;20109;-78
2023/10/23 03:50:16;;;;;;;7.72;2.28;;;;;;;15.69;65.12;101270.69;4931613;28;20572;-78
2023/10/23 03:52:43;;;;;;;5.97;2.00;;;;;;;15.52;65.14;101269.72;4930146;28;20046;-79
2023/10/23 03:55:10;;;;;;;3.92;1.80;;;;;;;15.56;65.34;101275.63;4923372;28;20397;-79
2023/10/23 03:57:37;;;;;;;4.32;1.70;;;;;;;15.45;65.70;101255.25;4931817;28;20057;-80
2023/10/23 04:00:05;;;;;;;4.45;1.75;;;;;;;15.54;65.71;101274.91;4929671;28;20043;-78
2023/10/23 04:02:32;;;;;;;6.13;2.20;;;;;;;15.39;65.63;101263.91;4929870;28;20501;-78
2023/10/23 04:05:00;;;;;;;5.75;2.45;;;;;;;15.37;65.95;101276.59;4877216;28;20146;-80
2023/10/23 04:07:27;;;;;;;4.38;2.05;;;;;;;15.33;65.73;101283.22;4910851;28;20043;-76
2023/10/23 04:09:53;;;;;;;3.90;2.08;;;;;;;15.03;66.08;101242.44;4932424;28;20495;-77
2023/10/23 04:12:20;;;;;;;5.45;2.47;;;;;;;15.32;66.29;101281.56;4950724;28;20050;-79
2023/10/23 04:14:49;;;;;;;6.10;2.05;;;;;;;15.31;66.09;101271.81;4939109;28;20051;-78
2023/10/23 04:17:16;;;;;;;8.57;1.92;;;;;;;15.42;66.14;101282.31;4938465;28;20047;-79
2023/10/23 04:19:49;;;;;;;5.05;2.25;;;;;;;15.24;65.89;101244.00;4919335;28;20493;-79
2023/10/23 04:22:17;;;;;;;4.18;2.05;;;;;;;15.48;65.82;101292.41;4933264;28;20051;-78
2023/10/23 04:24:44;;;;;;;5.80;1.90;;;;;;;15.42;65.54;101287.66;4934492;28;20478;-79
2023/10/23 04:27:10;;;;;;;5.13;1.98;;;;;;;15.36;65.46;101283.78;4916608;28;20511;-77
2023/10/23 04:29:37;;;;;;;3.30;1.42;;;;;;;15.28;66.12;101277.50;4931410;28;20576;-76
2023/10/23 04:32:05;;;;;;;7.40;2.55;;;;;;;15.29;65.98;101277.34;4926579;28;20113;-77
2023/10/23 04:34:32;;;;;;;5.38;2.17;;;;;;;15.28;65.78;101270.28;4937549;28;20241;-78
2023/10/23 04:36:59;;;;;;;7.32;1.75;;;;;;;15.43;66.93;101265.25;4931814;28;20047;-79
2023/10/23 04:39:26;;;;;;;6.15;2.13;;;;;;;15.39;67.02;101234.47;4958010;28;20098;-79
2023/10/23 04:41:53;;;;;;;4.35;2.30;;;;;;;15.68;66.03;101273.53;4929490;28;20117;-79
2023/10/23 04:44:20;;;;;;;3.30;2.20;;;;;;;15.63;65.32;101273.13;4936156;28;20054;-79
2023/10/23 04:46:48;;;;;;;6.00;2.35;;;;;;;15.47;65.66;101263.97;4929341;28;20423;-79
2023/10/23 04:49:15;;;;;;;7.43;2.70;;;;;;;15.27;65.65;101247.22;4926867;28;20082;-79
2023/10/23 04:51:42;;;;;;;3.88;2.15;;;;;;;15.38;65.69;101267.56;4930797;28;20063;-79
2023/10/23 04:54:11;;;;;;;7.35;2.38;;;;;;;15.34;65.08;101269.72;4937126;28;20085;-79
2023/10/23 04:56:41;;;;;;;4.32;1.95;;;;;;;15.25;65.91;101275.97;4936124;28;20179;-79
2023/10/23 04:59:08;;;;;;;9.95;2.85;;;;;;;15.11;65.73;101247.88;4934623;28;20133;-77
2023/10/23 05:01:35;;;;;;;5.90;2.20;;;;;;;15.38;66.46;101276.41;4940619;28;20047;-79
2023/10/23 05:04:04;;;;;;;8.20;2.40;;;;;;;15.30;65.94;101235.38;4919211;28;20057;-79
2023/10/23 05:06:34;;;;;;;14.15;11.15;;;;;;;15.21;65.79;101220.22;4900649;28;20494;-78
2023/10/23 05:09:04;;;;;;;6.82;2.65;;;;;;;15.47;65.03;101269.31;4892183;28;20058;-77
2023/10/23 05:11:33;;;;;;;4.68;1.92;;;;;;;15.01;64.93;101223.03;4913202;28;20046;-79
2023/10/23 05:14:05;;;;;;;3.53;1.70;;;;;;;15.29;65.54;101281.81;4919570;28;20058;-78
2023/10/23 05:16:45;;;;;;;9.10;4.50;;;;;;;15.16;65.42;101261.63;4921622;28;20106;-79
2023/10/23 05:19:18;;;;;;;6.00;2.50;;;;;;;15.28;65.83;101289.03;4925860;28;20138;-79
2023/10/23 05:21:45;;;;;;;9.07;2.80;;;;;;;15.24;65.90;101278.78;4940376;28;20443;-79
2023/10/23 05:24:15;;;;;;;5.82;2.42;;;;;;;15.09;66.03;101275.75;4928297;28;20512;-80
2023/10/23 05:26:51;;;;;;;3.88;2.20;;;;;;;15.09;66.32;101273.09;4916346;28;20055;-79
2023/10/23 05:29:23;;;;;;;7.53;2.38;;;;;;;15.12;66.67;101273.66;4916057;28;20078;-80
2023/10/23 05:31:51;;;;;;;7.78;2.15;;;;;;;15.06;66.51;101266.22;4934432;28;20144;-79
2023/10/23 05:34:26;;;;;;;;;;;;;;;15.08;66.44;101280.28;4924928;28;20402;-79
2023/10/23 05:36:53;;;;;;;8.38;2.20;;;;;;;15.20;67.20;101293.47;4948028;28;19961;-78
2023/10/23 05:39:20;;;;;;;6.32;2.45;;;;;;;15.28;66.61;101280.16;4947701;28;20417;-78
2023/10/23 05:41:46;;;;;;;7.78;2.25;;;;;;;15.30;66.24;101283.53;4934326;28;20128;-77
2023/10/23 05:44:13;;;;;;;5.75;2.30;;;;;;;15.24;66.30;101297.50;4938675;28;20412;-78
2023/10/23 05:46:45;;;;;;;4.13;2.15;;;;;;;15.16;66.22;101300.91;4943595;28;20050;-81
2023/10/23 05:49:21;;;;;;;4.32;2.05;;;;;;;15.10;66.25;101307.72;4915453;28;20055;-80
2023/10/23 05:51:48;;;;;;;9.05;2.03;;;;;;;15.08;66.13;101301.66;4911577;28;20652;-78
2023/10/23 05:54:16;;;;;;;8.75;2.92;;;;;;;15.07;66.46;101301.81;4896920;28;20150;-77
2023/10/23 05:56:50;;;;;;;6.35;2.13;;;;;;;15.12;66.76;101292.38;4890130;28;20055;-78
2023/10/23 05:59:21;;;;;;;5.40;2.03;;;;;;;15.26;67.58;101284.81;4912316;28;20408;-80
2023/10/23 06:01:52;;;;;;;4.13;1.77;;;;;;;15.37;66.54;101276.59;4913763;28;20494;-79
2023/10/23 06:04:24;;;;;;;4.10;1.88;;;;;;;15.36;67.68;101251.66;4920211;28;20055;-79
2023/10/23 06:06:53;;;;;;;4.82;2.88;;;;;;;15.66;67.37;101252.28;4914241;28;20445;-80
2023/10/23 06:09:20;;;;;;;7.00;3.13;;;;;;;15.93;66.44;101280.81;4941558;28;20106;-78
2023/10/23 06:11:48;;;;;;;12.55;3.13;;;;;;;15.78;65.36;101260.94;4930706;28;20078;-80
2023/10/23 06:14:15;;;;;;;2.85;2.00;;;;;;;15.87;65.63;101286.78;4947842;28;20613;-79
2023/10/23 06:16:42;;;;;;;5.70;2.58;;;;;;;15.85;65.33;101286.13;4931717;28;20477;-77
2023/10/23 06:19:09;;;;;;;8.70;2.92;;;;;;;16.03;66.20;101294.94;4912989;28;20525;-79
2023/10/23 06:21:36;;;;;;;6.38;2.47;;;;;;;16.01;65.53;101282.72;4937133;28;20055;-77
2023/10/23 06:24:03;;;;;;;10.00;3.45;;;;;;;15.82;64.45;101256.94;4936908;28;20445;-78
2023/10/23 06:26:30;;;;;;;5.30;2.58;;;;;;;16.06;64.45;101301.00;4935820;28;20352;-80
2023/10/23 06:28:59;;;;;;;7.28;3.15;;;;;;;16.01;64.62;101326.41;4944845;28;20083;-78
2023/10/23 06:31:27;;;;;;;6.32;2.92;;;;;;;15.89;64.68;101308.88;4941446;28;20050;-79
2023/10/23 06:33:54;;;;;;;5.57;3.35;;;;;;;15.78;65.14;101303.78;4943357;28;20493;-78
2023/10/23 06:36:21;;;;;;;8.85;2.70;;;;;;;15.92;65.22;101330.03;4949671;28;20449;-79
2023/10/23 06:38:49;;;;;;;12.75;6.30;;;;;;;15.89;65.24;101327.63;4943670;28;20051;-78
2023/10/23 06:41:16;;;;;;;11.18;3.70;;;;;;;15.74;65.22;101297.03;4945083;28;20382;-78
2023/10/23 06:43:43;;;;;;;14.15;3.03;;;;;;;15.70;65.18;101284.94;4946061;28;20082;-77
2023/10/23 06:46:10;;;;;;;4.82;2.97;;;;;;;16.02;65.52;101336.13;4941069;28;20082;-79
2023/10/23 06:48:44;;;;;;;5.05;2.70;;;;;;;16.01;65.41;101337.09;4951784;28;20109;-79
2023/10/23 06:51:16;;;;;;;13.45;3.00;;;;;;;16.14;65.08;101358.16;4939739;28;20306;-78
2023/10/23 06:53:43;;;;;;;8.93;2.95;;;;;;;16.23;65.05;101375.13;4950474;28;20089;-78
2023/10/23 06:56:10;;;;;;;6.03;2.75;;;;;;;16.25;65.10;101370.47;4946550;28;20043;-77
2023/10/23 06:58:37;;;;;;;10.23;2.85;;;;;;;16.12;65.55;101340.56;4945412;28;20420;-77
2023/10/23 07:01:06;;;;;;;8.35;3.15;;;;;;;15.12;65.24;101164.00;4950201;28;20046;-77
2023/10/23 07:03:36;;;;;;;4.15;2.60;;;;;;;16.53;65.74;101371.19;4948460;28;20505;-79
2023/10/23 07:06:07;;;;;;;7.57;3.20;;;;;;;16.49;65.20;101344.88;4938816;28;20473;-77
2023/10/23 07:08:34;;;;;;;10.00;3.88;;;;;;;16.62;65.38;101366.72;4913664;28;20550;-79
2023/10/23 07:11:02;;;;;;;4.60;3.17;;;;;;;16.64;65.16;101343.28;4913012;28;20498;-79
2023/10/23 07:13:29;;;;;;;9.20;3.15;;;;;;;16.70;65.45;101334.63;4912307;28;20447;-79
2023/10/23 07:16:03;;;;;;;8.88;3.38;;;;;;;16.96;64.48;101358.72;4893701;28;20081;-79
2023/10/23 07:18:30;;;;;;;10.40;3.25;;;;;;;17.00;64.97;101357.41;4949807;28;20049;-78
2023/10/23 07:21:01;;;;;;;14.32;3.25;;;;;;;17.13;64.78;101364.19;4937617;28;20047;-79
2023/10/23 07:23:31;;;;;;;14.27;3.20;;;;;;;17.17;64.14;101369.06;4943800;28;20057;-79
2023/10/23 07:26:24;;;;;;;8.93;3.25;;;;;;;17.22;64.03;101374.78;4940631;28;20911;-78
2023/10/23 07:28:51;;;;;;;9.25;3.20;;;;;;;16.98;64.03;101331.75;4939071;28;20098;-78
2023/10/23 07:31:19;;;;;;;4.38;2.40;;;;;;;17.28;63.79;101374.16;4942845;28;20077;-78
2023/10/23 07:33:46;;;;;;;6.47;2.97;;;;;;;17.40;64.96;101366.63;4936954;28;20109;-78
2023/10/23 07:36:14;;;;;;;8.65;3.40;;;;;;;17.46;64.05;101338.31;4946689;28;20051;-78
2023/10/23 07:38:44;;;;;;;5.65;3.03;;;;;;;17.62;62.73;101365.22;4933151;28;20073;-79
2023/10/23 07:41:12;;;;;;;15.35;3.42;;;;;;;17.62;62.60;101358.97;4897908;29;20514;-80
2023/10/23 07:43:39;;;;;;;9.75;2.88;;;;;;;17.61;63.07;101363.50;4943612;28;20058;-80
2023/10/23 07:46:08;;;;;;;6.30;2.78;;;;;;;17.71;63.57;101374.94;4938812;28;20082;-78
2023/10/23 07:48:44;;;;;;;10.23;2.67;;;;;;;17.79;62.77;101382.22;4941639;28;20051;-79
2023/10/23 07:51:13;;;;;;;7.90;2.78;;;;;;;17.78;63.07;101380.50;4931329;28;20051;-78
2023/10/23 07:53:40;;;;;;;11.98;3.28;;;;;;;17.47;62.86;101340.81;4943347;28;20110;-78
2023/10/23 07:56:07;;;;;;;6.47;2.20;;;;;;;17.91;62.77;101420.34;4937782;28;20080;-78
2023/10/23 07:58:40;;;;;;;12.45;3.10;;;;;;;17.75;62.74;101386.22;4963893;28;20053;-78
2023/10/23 08:01:13;;;;;;;;;;;;;;;17.45;62.41;101347.34;4952964;28;20102;-79
2023/10/23 08:03:41;;;;;;;7.82;2.92;;;;;;;17.89;63.27;101403.56;4940732;28;20291;-78
2023/10/23 08:06:10;;;;;;;9.73;3.20;;;;;;;17.96;62.52;101415.31;4936018;28;20496;-78
2023/10/23 08:08:39;;;;;;;9.27;2.83;;;;;;;18.00;62.41;101402.41;4937568;28;20062;-79
2023/10/23 08:11:08;;;;;;;9.73;3.28;;;;;;;17.74;62.59;101346.91;4946607;28;20047;-79
2023/10/23 08:13:36;;;;;;;6.78;3.30;;;;;;;18.21;62.03;101410.00;4953102;28;20105;-78
2023/10/23 08:16:06;;;;;;;4.38;2.13;;;;;;;18.14;63.08;101378.41;4926098;28;20047;-78
2023/10/23 08:18:38;;;;;;;7.50;2.40;;;;;;;18.39;62.85;101393.69;4921748;28;20245;-77
2023/10/23 08:21:15;;;;;;;10.02;2.72;;;;;;;18.45;62.29;101404.63;4922093;28;20105;-78
2023/10/23 08:23:52;;;;;;;7.43;2.58;;;;;;;18.46;61.92;101400.09;4928439;28;20058;-77
2023/10/23 08:26:23;;;;;;;9.23;2.95;;;;;;;18.58;62.67;101406.78;4919234;28;20138;-77
2023/10/23 08:28:50;;;;;;;5.45;1.92;;;;;;;18.54;61.21;101390.16;4943840;28;20516;-78
2023/10/23 08:31:21;;;;;;;4.40;2.05;;;;;;;18.71;61.43;101409.78;4940646;28;20051;-77
2023/10/23 08:34:04;;;;;;;5.30;2.33;;;;;;;18.74;60.60;101387.13;4945292;28;20054;-77
2023/10/23 08:36:32;;;;;;;3.53;2.10;;;;;;;18.69;62.02;101373.31;4955495;28;20047;-77
2023/10/23 08:39:00;;;;;;;4.78;2.30;;;;;;;18.97;60.45;101398.84;4947651;28;20054;-77
2023/10/23 08:41:27;;;;;;;4.60;2.13;;;;;;;18.95;59.08;101378.50;4936638;28;20051;-76
2023/10/23 08:43:55;;;;;;;7.22;2.67;;;;;;;18.98;59.94;101379.03;4932685;28;20047;-76
2023/10/23 08:46:31;;;;;;;7.57;2.20;;;;;;;19.19;60.29;101393.75;4932050;28;20085;-76
2023/10/23 08:49:03;;;;;;;5.38;1.98;;;;;;;19.27;59.30;101380.25;4935715;28;20493;-76
2023/10/23 08:51:32;;;;;;;4.90;2.35;;;;;;;19.38;61.17;101389.81;4935773;28;20206;-79
2023/10/23 08:54:06;;;;;;;3.95;1.50;;;;;;;19.44;57.67;101383.69;4941139;28;20047;-77
2023/10/23 08:56:40;;;;;;;4.22;2.30;;;;;;;19.39;60.66;101376.19;4939404;28;20059;-77
2023/10/23 08:59:09;;;;;;;5.50;2.22;;;;;;;19.66;59.79;101387.50;4931349;28;20083;-77
2023/10/23 09:01:37;;;;;;;5.57;1.70;;;;;;;19.67;59.34;101386.47;4932126;28;20126;-77
2023/10/23 09:04:05;;;;;;;3.40;1.35;;;;;;;19.71;56.55;101377.03;4927097;28;20058;-77
2023/10/23 09:06:40;;;;;;;4.72;1.40;;;;;;;19.84;55.95;101381.84;4926928;28;20109;-79
2023/10/23 09:09:14;;;;;;;6.45;1.90;;;;;;;19.77;57.39;101362.84;4907021;28;20105;-77
2023/10/23 09:11:50;;;;;;;4.13;1.77;;;;;;;19.95;57.22;101388.66;4922173;28;20058;-78
2023/10/23 09:14:26;;;;;;;4.85;1.85;;;;;;;19.99;57.95;101381.91;4915979;28;20552;-76
2023/10/23 09:17:03;;;;;;;4.47;2.17;;;;;;;20.13;58.33;101369.50;4917019;28;20278;-76
2023/10/23 09:19:41;;;;;;;6.63;2.65;;;;;;;20.13;57.40;101361.44;4890127;28;20050;-78
2023/10/23 09:22:13;;;;;;;7.25;3.33;;;;;;;20.22;57.23;101374.66;4923510;28;20271;-79
2023/10/23 09:24:40;;;;;;;5.35;1.60;;;;;;;20.40;56.94;101384.28;4936308;28;20474;-76
2023/10/23 09:27:07;;;;;;;5.18;2.13;;;;;;;20.46;56.54;101394.31;4905154;28;20222;-77
2023/10/23 09:29:40;;;;;;;6.22;1.98;;;;;;;20.40;54.68;101378.88;4894382;28;20408;-78
2023/10/23 09:32:16;;;;;;;3.25;1.83;;;;;;;20.37;56.53;101363.09;4886414;28;20058;-77
2023/10/23 09:34:48;;;;;;;4.10;1.45;;;;;;;20.53;57.12;101384.47;4909594;28;20133;-78
2023/10/23 09:37:15;;;;;;;4.85;2.90;;;;;;;20.58;55.44;101378.56;4948809;28;20133;-77
2023/10/23 09:39:46;;;;;;;4.40;1.60;;;;;;;20.62;54.39;101383.41;4905987;28;20146;-79
2023/10/23 09:42:13;;;;;;;3.80;1.80;;;;;;;20.66;54.54;101373.94;4923691;28;20038;-76
2023/10/23 09:44:48;;;;;;;3.88;1.48;;;;;;;20.68;55.37;101368.34;4926231;28;20058;-79
2023/10/23 09:47:36;;;;;;;4.63;1.48;;;;;;;20.92;53.68;101396.94;4889681;28;20500;-79
2023/10/23 09:50:08;;;;;;;8.02;1.40;;;;;;;20.94;54.61;101381.41;4898266;28;20313;-78
2023/10/23 09:52:43;;;;;;;5.18;2.58;;;;;;;20.55;54.82;101300.69;4919120;28;20058;-75
2023/10/23 09:55:26;;;;;;;4.85;1.67;;;;;;;20.87;52.23;101348.09;4915793;28;20559;-78
2023/10/23 09:58:08;;;;;;;2.75;1.90;;;;;;;21.11;54.31;101374.78;4890538;28;20401;-76
2023/10/23 10:00:40;;;;;;;3.60;1.73;;;;;;;21.29;54.76;101370.88;4924048;28;20516;-79
2023/10/23 10:03:11;;;;;;;4.32;1.85;;;;;;;21.35;54.38;101372.81;4932546;28;20231;-78
2023/10/23 10:05:52;;;;;;;8.18;2.97;;;;;;;21.40;54.11;101386.63;4927495;28;20502;-78
2023/10/23 10:08:21;;;;;;;3.83;1.43;;;;;;;21.24;54.08;101340.88;4900161;28;20201;-75
2023/10/23 10:10:50;;;;;;;7.45;1.83;;;;;;;21.59;53.19;101370.84;4914082;28;20066;-78
2023/10/23 10:13:23;;;;;;;6.93;1.98;;;;;;;21.28;52.65;101328.69;4912085;28;20082;-80
2023/10/23 10:16:04;;;;;;;3.15;1.67;;;;;;;21.47;53.11;101359.69;4904926;28;20054;-78
2023/10/23 10:18:46;;;;;;;6.97;1.90;;;;;;;21.29;53.11;101308.78;4902470;28;20271;-77
2023/10/23 10:21:27;;;;;;;4.82;1.55;;;;;;;21.80;53.61;101370.03;4923248;28;20382;-76
2023/10/23 10:24:03;;;;;;;5.80;2.03;;;;;;;21.78;51.99;101367.53;4889362;28;20251;-81
2023/10/23 10:26:33;;;;;;;5.00;2.53;;;;;;;21.68;53.06;101358.91;4917863;28;20166;-78
2023/10/23 10:29:09;;;;;;;4.90;2.25;;;;;;;21.77;52.88;101360.44;4910529;28;20051;-77
2023/10/23 10:32:02;;;;;;;3.70;1.75;;;;;;;21.97;52.51;101372.31;4897029;28;20288;-78
2023/10/23 10:34:47;;;;;;;6.68;1.60;;;;;;;21.87;51.23;101360.97;4924292;28;20456;-78
2023/10/23 10:37:31;;;;;;;4.80;1.90;;;;;;;21.97;51.82;101366.06;4915506;28;20359;-76
2023/10/23 10:39:58;;;;;;;6.68;1.70;;;;;;;21.73;52.23;101318.63;4936752;28;20057;-78
2023/10/23 10:42:30;;;;;;;1.80;1.02;;;;;;;22.01;51.86;101350.28;4950900;28;20109;-76
2023/10/23 10:44:57;;;;;;;;;;;;;;;22.01;50.81;101355.69;4936139;28;20525;-77
2023/10/23 10:47:43;;;;;;;7.90;1.98;;;;;;;21.64;51.59;101311.66;4934806;28;20348;-77
2023/10/23 10:50:38;;;;;;;4.13;1.52;;;;;;;21.82;53.15;101339.09;4937670;28;20519;-78
2023/10/23 10:53:07;;;;;;;6.82;1.42;;;;;;;21.72;50.87;101330.44;4940021;28;20080;-77
2023/10/23 10:55:36;;;;;;;3.85;1.70;;;;;;;21.64;52.38;101355.72;4939879;28;20051;-76
2023/10/23 10:58:04;;;;;;;5.03;1.67;;;;;;;21.34;52.14;101295.53;4934030;28;20039;-77
2023/10/23 11:00:33;;;;;;;5.68;1.63;;;;;;;21.60;52.78;101353.59;4936234;28;20552;-78
2023/10/23 11:03:03;;;;;;;4.43;1.85;;;;;;;21.48;52.90;101335.22;4946227;28;20482;-77
2023/10/23 11:05:32;;;;;;;6.60;1.63;;;;;;;21.30;53.44;101321.25;4945881;28;20058;-79
2023/10/23 11:08:00;;;;;;;6.88;1.45;;;;;;;21.42;52.45;101335.94;4948180;28;20460;-77
2023/10/23 11:10:27;;;;;;;5.07;1.50;;;;;;;21.36;51.94;101342.09;4948555;28;20126;-76
2023/10/23 11:12:54;;;;;;;5.68;2.13;;;;;;;21.45;53.46;101346.38;4950079;28;20552;-77
2023/10/23 11:15:21;;;;;;;2.03;1.48;;;;;;;21.45;54.35;101338.25;4922976;28;20540;-78
2023/10/23 11:17:48;;;;;;;4.18;1.75;;;;;;;21.27;53.68;101316.22;4955423;28;20039;-78
2023/10/23 11:20:30;;;;;;;4.28;1.40;;;;;;;21.21;53.36;101322.38;4913906;28;20096;-77
2023/10/23 11:23:15;;;;;;;4.20;1.77;;;;;;;21.24;53.06;101327.38;4924548;28;20080;-79
2023/10/23 11:25:46;;;;;;;5.05;2.03;;;;;;;21.17;53.90;101310.28;4896373;28;20054;-78
2023/10/23 11:28:23;;;;;;;4.43;1.98;;;;;;;21.20;54.23;101326.09;4917686;28;20055;-79
2023/10/23 11:31:03;;;;;;;5.60;1.77;;;;;;;21.19;54.25;101313.63;4911170;28;20057;-78
2023/10/23 11:33:36;;;;;;;6.25;2.85;;;;;;;20.95;53.52;101269.75;4908901;28;20146;-78
2023/10/23 11:36:05;;;;;;;1.95;1.58;;;;;;;21.16;54.11;101292.41;4916263;28;20051;-79
2023/10/23 11:38:40;;;;;;;3.80;1.85;;;;;;;21.14;53.42;101284.47;4938431;28;20062;-77